Terminal Aerodrome Forecast
Issued by NWS

Home | Current Version | Previous Version | Text Only | Print | Product List | Glossary On
Versions: 1 2 3 4 5 6 7 8 9 10 11 12 13 14 15 16 17 18
000
FTUS43 KFGF 210024 AAA
TAFBJI
TAF AMD
KBJI 210024Z 2100/2124 29013KT P6SM OVC008
     FM210600 27006KT 1/2SM FG BKN003
     FM211300 20006KT 1SM BR BKN008
     FM211600 20010KT P6SM SCT060=

USA.gov is the U.S. government's official web portal to all federal, state and local government web resources and services.